sensor_id;sensor_type;location;lat;lon;timestamp;pressure;altitude;pressure_sealevel;temperature;humidity
65054;BME280;51639;47.828;35.038;2024-01-25T00:07:46;100197.00;;;2.10;100.00
65054;BME280;51639;47.828;35.038;2024-01-25T00:22:48;100149.56;;;1.84;100.00
65054;BME280;51639;47.828;35.038;2024-01-25T00:37:51;100146.25;;;1.94;100.00
65054;BME280;51639;47.828;35.038;2024-01-25T00:52:56;100110.94;;;1.85;100.00
65054;BME280;51639;47.828;35.038;2024-01-25T01:07:58;100098.69;;;0.96;100.00
65054;BME280;51639;47.828;35.038;2024-01-25T01:23:00;100056.34;;;1.17;100.00
65054;BME280;51639;47.828;35.038;2024-01-25T01:38:03;100037.69;;;1.01;100.00
65054;BME280;51639;47.828;35.038;2024-01-25T01:53:05;100009.25;;;1.13;100.00
65054;BME280;51639;47.828;35.038;2024-01-25T02:08:07;99981.16;;;0.99;100.00
65054;BME280;51639;47.828;35.038;2024-01-25T02:23:10;99953.03;;;1.58;100.00
65054;BME280;51639;47.828;35.038;2024-01-25T02:38:12;99943.00;;;1.52;100.00
65054;BME280;51639;47.828;35.038;2024-01-25T02:53:14;99919.59;;;2.05;100.00
65054;BME280;51639;47.828;35.038;2024-01-25T03:08:27;99886.66;;;2.34;100.00
65054;BME280;51639;47.828;35.038;2024-01-25T03:23:29;99863.38;;;2.05;100.00
65054;BME280;51639;47.828;35.038;2024-01-25T03:38:32;99836.50;;;1.98;100.00
65054;BME280;51639;47.828;35.038;2024-01-25T03:53:34;99805.41;;;2.23;100.00
65054;BME280;51639;47.828;35.038;2024-01-25T04:08:36;99789.31;;;2.71;100.00
65054;BME280;51639;47.828;35.038;2024-01-25T04:23:38;99772.94;;;2.80;100.00
65054;BME280;51639;47.828;35.038;2024-01-25T04:38:40;99744.56;;;2.75;100.00
65054;BME280;51639;47.828;35.038;2024-01-25T04:53:42;99723.97;;;2.93;100.00
65054;BME280;51639;47.828;35.038;2024-01-25T05:08:44;99691.50;;;3.13;100.00
65054;BME280;51639;47.828;35.038;2024-01-25T05:23:46;99670.88;;;2.48;100.00
65054;BME280;51639;47.828;35.038;2024-01-25T05:38:48;99643.78;;;2.60;100.00
65054;BME280;51639;47.828;35.038;2024-01-25T05:53:50;99614.78;;;2.83;100.00
65054;BME280;51639;47.828;35.038;2024-01-25T06:08:53;99595.34;;;3.25;100.00
65054;BME280;51639;47.828;35.038;2024-01-25T06:24:11;99567.03;;;3.49;100.00
65054;BME280;51639;47.828;35.038;2024-01-25T06:39:13;99561.66;;;3.63;100.00
65054;BME280;51639;47.828;35.038;2024-01-25T06:54:15;99524.28;;;4.36;100.00
65054;BME280;51639;47.828;35.038;2024-01-25T07:09:18;99530.69;;;4.67;100.00
65054;BME280;51639;47.828;35.038;2024-01-25T07:24:20;99511.34;;;4.87;100.00
65054;BME280;51639;47.828;35.038;2024-01-25T07:39:22;99497.38;;;5.09;100.00
65054;BME280;51639;47.828;35.038;2024-01-25T07:54:24;99501.59;;;4.44;100.00
65054;BME280;51639;47.828;35.038;2024-01-25T08:09:26;99477.06;;;4.35;100.00
65054;BME280;51639;47.828;35.038;2024-01-25T08:24:28;99487.66;;;5.23;100.00
65054;BME280;51639;47.828;35.038;2024-01-25T08:39:30;99454.84;;;5.42;100.00
65054;BME280;51639;47.828;35.038;2024-01-25T08:54:32;99438.75;;;5.31;100.00
65054;BME280;51639;47.828;35.038;2024-01-25T09:09:34;99411.50;;;5.26;100.00
65054;BME280;51639;47.828;35.038;2024-01-25T09:24:38;99381.94;;;5.22;100.00
65054;BME280;51639;47.828;35.038;2024-01-25T09:39:42;99377.03;;;5.51;100.00
65054;BME280;51639;47.828;35.038;2024-01-25T09:54:44;99350.91;;;5.48;100.00
65054;BME280;51639;47.828;35.038;2024-01-25T10:09:47;99345.16;;;5.46;100.00
65054;BME280;51639;47.828;35.038;2024-01-25T10:24:49;99327.59;;;5.68;100.00
65054;BME280;51639;47.828;35.038;2024-01-25T10:39:59;99303.97;;;6.13;100.00
65054;BME280;51639;47.828;35.038;2024-01-25T10:55:02;99305.56;;;6.34;100.00
65054;BME280;51639;47.828;35.038;2024-01-25T11:10:11;99290.78;;;5.62;100.00
65054;BME280;51639;47.828;35.038;2024-01-25T11:25:21;99286.75;;;6.04;100.00
65054;BME280;51639;47.828;35.038;2024-01-25T11:40:23;99295.00;;;6.20;100.00
65054;BME280;51639;47.828;35.038;2024-01-25T11:55:25;99297.91;;;6.06;100.00
65054;BME280;51639;47.828;35.038;2024-01-25T12:10:29;99298.50;;;6.17;100.00
65054;BME280;51639;47.828;35.038;2024-01-25T12:25:31;99301.00;;;6.04;100.00
65054;BME280;51639;47.828;35.038;2024-01-25T12:40:33;99313.53;;;6.14;100.00
65054;BME280;51639;47.828;35.038;2024-01-25T12:55:36;99306.69;;;6.10;100.00
65054;BME280;51639;47.828;35.038;2024-01-25T13:10:38;99285.28;;;6.26;100.00
65054;BME280;51639;47.828;35.038;2024-01-25T13:25:40;99287.38;;;6.38;100.00
65054;BME280;51639;47.828;35.038;2024-01-25T13:40:42;99275.56;;;6.56;100.00
65054;BME280;51639;47.828;35.038;2024-01-25T13:55:44;99272.41;;;6.61;100.00
65054;BME280;51639;47.828;35.038;2024-01-25T14:10:46;99290.38;;;6.67;100.00
65054;BME280;51639;47.828;35.038;2024-01-25T14:25:50;99294.81;;;6.58;100.00
65054;BME280;51639;47.828;35.038;2024-01-25T14:40:52;99302.75;;;6.41;100.00
65054;BME280;51639;47.828;35.038;2024-01-25T14:56:01;99308.16;;;6.41;100.00
65054;BME280;51639;47.828;35.038;2024-01-25T15:11:03;99308.16;;;6.41;100.00
65054;BME280;51639;47.828;35.038;2024-01-25T15:26:05;99311.56;;;6.45;100.00
65054;BME280;51639;47.828;35.038;2024-01-25T15:41:09;99314.38;;;5.81;100.00
65054;BME280;51639;47.828;35.038;2024-01-25T15:56:14;99300.59;;;5.75;100.00
65054;BME280;51639;47.828;35.038;2024-01-25T16:11:16;99299.34;;;5.53;100.00
65054;BME280;51639;47.828;35.038;2024-01-25T16:26:39;99314.97;;;5.65;100.00
65054;BME280;51639;47.828;35.038;2024-01-25T16:42:36;99309.44;;;6.33;100.00
65054;BME280;51639;47.828;35.038;2024-01-25T16:57:44;99309.84;;;6.05;100.00
65054;BME280;51639;47.828;35.038;2024-01-25T17:13:14;99299.69;;;5.86;100.00
65054;BME280;51639;47.828;35.038;2024-01-25T17:28:50;99316.78;;;6.56;100.00
65054;BME280;51639;47.828;35.038;2024-01-25T17:43:52;99309.34;;;5.83;100.00
65054;BME280;51639;47.828;35.038;2024-01-25T17:58:54;99305.91;;;5.82;100.00
65054;BME280;51639;47.828;35.038;2024-01-25T18:14:03;99309.00;;;5.81;100.00
65054;BME280;51639;47.828;35.038;2024-01-25T18:29:08;99311.00;;;6.04;100.00
65054;BME280;51639;47.828;35.038;2024-01-25T18:44:13;99320.59;;;6.59;100.00
65054;BME280;51639;47.828;35.038;2024-01-25T18:59:15;99330.66;;;6.31;100.00
65054;BME280;51639;47.828;35.038;2024-01-25T19:14:18;99317.19;;;6.55;100.00
65054;BME280;51639;47.828;35.038;2024-01-25T19:29:20;99306.69;;;6.10;100.00
65054;BME280;51639;47.828;35.038;2024-01-25T19:44:23;99312.81;;;6.14;100.00
65054;BME280;51639;47.828;35.038;2024-01-25T19:59:25;99311.44;;;6.76;100.00
65054;BME280;51639;47.828;35.038;2024-01-25T20:14:27;99317.72;;;6.19;100.00
65054;BME280;51639;47.828;35.038;2024-01-25T20:29:30;99309.41;;;6.10;100.00
65054;BME280;51639;47.828;35.038;2024-01-25T20:44:33;99307.13;;;6.59;100.00
65054;BME280;51639;47.828;35.038;2024-01-25T20:59:35;99320.59;;;6.82;100.00
65054;BME280;51639;47.828;35.038;2024-01-25T21:14:37;99336.38;;;6.83;100.00
65054;BME280;51639;47.828;35.038;2024-01-25T21:29:39;99339.13;;;6.80;100.00
65054;BME280;51639;47.828;35.038;2024-01-25T21:44:41;99321.69;;;6.11;100.00
65054;BME280;51639;47.828;35.038;2024-01-25T21:59:45;99337.34;;;6.93;100.00
65054;BME280;51639;47.828;35.038;2024-01-25T22:14:47;99338.44;;;6.76;100.00
65054;BME280;51639;47.828;35.038;2024-01-25T22:29:49;99314.94;;;5.99;100.00
65054;BME280;51639;47.828;35.038;2024-01-25T22:44:51;99313.00;;;6.27;100.00
65054;BME280;51639;47.828;35.038;2024-01-25T22:59:54;99321.78;;;6.81;100.00
65054;BME280;51639;47.828;35.038;2024-01-25T23:14:56;99304.00;;;6.10;100.00
65054;BME280;51639;47.828;35.038;2024-01-25T23:29:59;99311.13;;;6.24;100.00
65054;BME280;51639;47.828;35.038;2024-01-25T23:45:01;99308.09;;;6.18;100.00
